KGPH

Midwest National Air Center Airport

Mosby, Missouri, USA
METAR KGPH 180835Z AUTO 22006KT 10SM OVC037 07/05 A3002 RMK AO2
Observed Flight Rules
Dec-18 @ 08:35 UTC (22 minutes ago) Visual Flight Rules
Wind Visibility Clouds
220° at 6 knots 10 miles
  • Overcast at 3,700' AGL
Temperatures Readings
Current 7°C / 45°F
Dewpoint 5°C / 41°F
Humidity 87%
Altimeter 30.02" Hg
Pressure 1017 hPa
Elevation 235
METAR KGPH 180835Z AUTO 22006KT 10SM OVC037 07/05 A3002 RMK AO2
Observed Flight Rules
Dec-18 @ 08:35 UTC
(22 minutes ago)
VFR
Wind Visibility
220° at 6 knots 10 miles
Clouds
  • Overcast at 3,700' AGL
Temperature Dewpoint
7°C / 45°F 5°C / 41°F
Humidity Altimeter Pressure
87% 30.02" Hg 1017 hPa